Time;durP1;ratioP1;P1;durP2;ratioP2;P2;SDS_P1;SDS_P2;PMS_P1;PMS_P2;Temp;Humidity;BMP_temperature;BMP_pressure;BME280_temperature;BME280_humidity;BME280_pressure;Samples;Min_cycle;Max_cycle;Signal;HPM_P1;HPM_P2
2023/04/13 00:02:54;;;;;;;0.70;0.70;;;12.40;39.60;;;;;;10261692;28;20229;-69
2023/04/13 00:08:01;;;;;;;0.50;0.50;;;12.40;40.40;;;;;;10259963;28;20273;-70
2023/04/13 00:13:06;;;;;;;0.70;0.70;;;12.40;40.30;;;;;;10259891;28;20599;-70
2023/04/13 00:18:11;;;;;;;0.60;0.60;;;12.40;40.10;;;;;;10256534;28;20236;-71
2023/04/13 00:23:15;;;;;;;0.40;0.40;;;12.40;39.20;;;;;;10256670;28;20740;-71
2023/04/13 00:28:18;;;;;;;0.50;0.50;;;12.20;38.50;;;;;;10260954;28;20238;-70
2023/04/13 00:33:21;;;;;;;0.60;0.50;;;12.00;38.40;;;;;;10260123;28;20243;-71
2023/04/13 00:38:28;;;;;;;0.43;0.43;;;11.70;38.50;;;;;;10259585;28;20239;-71
2023/04/13 00:43:31;;;;;;;0.50;0.50;;;11.60;38.80;;;;;;10258665;28;20704;-71
2023/04/13 00:48:35;;;;;;;0.50;0.50;;;11.50;38.80;;;;;;10256172;28;20736;-71
2023/04/13 00:53:40;;;;;;;0.40;0.40;;;11.50;38.60;;;;;;10256987;28;20232;-71
2023/04/13 00:58:44;;;;;;;0.57;0.50;;;11.40;38.90;;;;;;10260404;28;20247;-71
2023/04/13 01:03:48;;;;;;;0.50;0.50;;;11.40;38.80;;;;;;10260521;28;20338;-71
2023/04/13 01:08:57;;;;;;;0.40;0.40;;;11.30;39.60;;;;;;10252111;28;20232;-71
2023/04/13 01:14:07;;;;;;;1.13;0.50;;;11.30;39.20;;;;;;10255398;28;20236;-71
2023/04/13 01:19:21;;;;;;;0.50;0.50;;;11.40;39.30;;;;;;10257468;28;20220;-71
2023/04/13 01:24:46;;;;;;;0.50;0.50;;;11.40;39.50;;;;;;10253924;28;20352;-71
2023/04/13 01:29:51;;;;;;;0.50;0.50;;;11.50;40.10;;;;;;10257985;28;20228;-71
2023/04/13 01:34:54;;;;;;;0.77;0.50;;;11.60;39.50;;;;;;10261007;28;20232;-71
2023/04/13 01:39:57;;;;;;;0.93;0.53;;;11.50;39.00;;;;;;10254996;28;20814;-71
2023/04/13 01:45:04;;;;;;;0.50;0.50;;;11.50;38.80;;;;;;10259827;28;20237;-70
2023/04/13 01:50:15;;;;;;;0.50;0.50;;;11.40;39.20;;;;;;10297612;28;20215;-70
2023/04/13 01:55:19;;;;;;;0.50;0.50;;;11.40;39.70;;;;;;10292721;28;20243;-70
2023/04/13 02:00:30;;;;;;;0.43;0.43;;;11.40;39.30;;;;;;10296828;28;20748;-71
2023/04/13 02:05:35;;;;;;;1.37;0.50;;;11.40;39.60;;;;;;10291457;28;20339;-70
2023/04/13 02:10:40;;;;;;;0.50;0.50;;;11.40;39.20;;;;;;10292690;28;20557;-70
2023/04/13 02:15:46;;;;;;;0.60;0.60;;;11.40;39.00;;;;;;10293292;28;20228;-70
2023/04/13 02:21:00;;;;;;;2.83;0.60;;;11.40;39.20;;;;;;10297525;28;20951;-70
2023/04/13 02:26:04;;;;;;;0.40;0.40;;;11.40;39.80;;;;;;10287424;28;20255;-70
2023/04/13 02:31:09;;;;;;;0.50;0.50;;;11.30;39.10;;;;;;10293457;28;20299;-70
2023/04/13 02:36:12;;;;;;;0.50;0.50;;;11.30;39.40;;;;;;10292808;28;20246;-70
2023/04/13 02:41:15;;;;;;;0.60;0.60;;;11.30;39.30;;;;;;10296112;28;20227;-70
2023/04/13 02:46:20;;;;;;;0.50;0.50;;;11.40;39.10;;;;;;10295165;28;21699;-70
2023/04/13 02:51:24;;;;;;;2.63;0.70;;;11.30;39.10;;;;;;10298365;28;20333;-70
2023/04/13 02:56:29;;;;;;;0.60;0.60;;;11.20;39.00;;;;;;10295261;28;20223;-70
2023/04/13 03:01:34;;;;;;;0.87;0.50;;;11.10;39.10;;;;;;10295099;28;20250;-72
2023/04/13 03:06:37;;;;;;;0.93;0.60;;;11.00;39.50;;;;;;10295805;28;20234;-70
2023/04/13 03:11:40;;;;;;;1.47;0.60;;;10.90;39.30;;;;;;10293385;28;20246;-70
2023/04/13 03:16:45;;;;;;;0.70;0.70;;;10.80;39.50;;;;;;10294753;28;20235;-70
2023/04/13 03:21:49;;;;;;;0.60;0.60;;;10.80;40.00;;;;;;10296946;28;20220;-70
2023/04/13 03:26:54;;;;;;;0.67;0.67;;;10.70;39.80;;;;;;10289220;28;20228;-70
2023/04/13 03:31:59;;;;;;;0.60;0.60;;;10.60;40.00;;;;;;10292814;28;20227;-72
2023/04/13 03:37:02;;;;;;;0.60;0.60;;;10.60;40.50;;;;;;10291985;28;20235;-70
2023/04/13 03:42:06;;;;;;;0.80;0.80;;;10.50;40.40;;;;;;10302193;28;20231;-70
2023/04/13 03:47:11;;;;;;;0.60;0.60;;;10.50;40.40;;;;;;10300026;28;20748;-70
2023/04/13 03:52:14;;;;;;;0.60;0.60;;;10.50;40.40;;;;;;10297977;28;20228;-70
2023/04/13 03:57:17;;;;;;;0.57;0.50;;;10.50;40.40;;;;;;10302050;28;20727;-70
2023/04/13 04:02:21;;;;;;;0.70;0.60;;;10.50;41.10;;;;;;10298445;28;20223;-70
2023/04/13 04:07:25;;;;;;;0.73;0.60;;;10.50;40.40;;;;;;10297967;28;20322;-70
2023/04/13 04:12:28;;;;;;;0.60;0.60;;;10.50;40.40;;;;;;10298201;28;20239;-70
2023/04/13 04:17:33;;;;;;;0.70;0.50;;;10.50;40.40;;;;;;10302687;28;20235;-70
2023/04/13 04:22:36;;;;;;;0.80;0.80;;;10.50;40.40;;;;;;10296981;28;20255;-70
2023/04/13 04:27:39;;;;;;;0.60;0.60;;;10.60;40.40;;;;;;10300754;28;20728;-70
2023/04/13 04:32:43;;;;;;;0.50;0.50;;;10.50;40.10;;;;;;10298276;28;20235;-72
2023/04/13 04:37:48;;;;;;;0.83;0.57;;;10.50;40.40;;;;;;10300966;28;20310;-71
2023/04/13 04:42:52;;;;;;;1.40;1.10;;;10.50;40.30;;;;;;10296110;28;20692;-70
2023/04/13 04:47:57;;;;;;;1.00;0.60;;;10.40;40.30;;;;;;10297678;28;20246;-70
2023/04/13 04:53:00;;;;;;;0.73;0.73;;;10.40;40.30;;;;;;10302410;28;20221;-69
2023/04/13 04:58:03;;;;;;;0.70;0.70;;;10.40;40.30;;;;;;10296578;28;20223;-72
2023/04/13 05:03:08;;;;;;;0.77;0.60;;;10.40;40.30;;;;;;10300889;28;20262;-70
2023/04/13 05:08:12;;;;;;;1.00;0.70;;;10.40;40.30;;;;;;10300957;28;20236;-69
2023/04/13 05:13:15;;;;;;;0.87;0.87;;;10.40;40.30;;;;;;10295794;28;20239;-70
2023/04/13 05:18:19;;;;;;;0.83;0.83;;;10.50;40.40;;;;;;10300188;28;20238;-69
2023/04/13 05:23:22;;;;;;;0.90;0.90;;;10.50;40.40;;;;;;10301801;28;20242;-69
2023/04/13 05:28:26;;;;;;;0.70;0.70;;;10.50;40.40;;;;;;10295826;28;20235;-69
2023/04/13 05:33:30;;;;;;;1.27;1.00;;;10.50;40.30;;;;;;10299398;28;20247;-70
2023/04/13 05:38:33;;;;;;;0.90;0.90;;;10.50;40.40;;;;;;10299028;28;20250;-69
2023/04/13 05:43:37;;;;;;;0.83;0.83;;;10.50;40.40;;;;;;10297216;28;20235;-69
2023/04/13 05:48:42;;;;;;;1.13;0.90;;;10.50;40.40;;;;;;10302145;28;20251;-69
2023/04/13 05:53:46;;;;;;;0.87;0.87;;;10.50;40.40;;;;;;10294897;28;20885;-69
2023/04/13 05:58:49;;;;;;;0.70;0.70;;;10.60;40.50;;;;;;10299676;28;20711;-69
2023/04/13 06:03:54;;;;;;;0.90;0.90;;;10.50;40.40;;;;;;10290597;28;20836;-69
2023/04/13 06:08:58;;;;;;;1.00;1.00;;;10.50;40.40;;;;;;10298233;28;20249;-70
2023/04/13 06:14:02;;;;;;;1.40;0.90;;;10.50;40.40;;;;;;10297006;28;20582;-70
2023/04/13 06:19:06;;;;;;;1.70;1.60;;;10.50;41.10;;;;;;10291207;28;20247;-70
2023/04/13 06:24:10;;;;;;;1.00;0.97;;;10.60;40.50;;;;;;10288530;28;20223;-70
2023/04/13 06:29:13;;;;;;;1.53;1.20;;;10.60;40.50;;;;;;10295863;28;20228;-70
2023/04/13 06:34:17;;;;;;;1.20;1.10;;;10.60;40.50;;;;;;10292359;28;20746;-70
2023/04/13 06:39:21;;;;;;;1.63;1.50;;;10.60;40.50;;;;;;10294699;28;20223;-71
2023/04/13 06:44:24;;;;;;;2.07;1.23;;;10.60;40.50;;;;;;10295485;28;20235;-70
2023/04/13 06:49:32;;;;;;;1.20;1.10;;;10.70;40.50;;;;;;10296996;28;20245;-71
2023/04/13 06:54:35;;;;;;;1.60;1.03;;;10.70;40.60;;;;;;10288745;28;20235;-70
2023/04/13 06:59:38;;;;;;;1.20;1.10;;;10.80;40.60;;;;;;10280055;28;20238;-68
2023/04/13 07:04:43;;;;;;;1.00;1.00;;;10.80;40.60;;;;;;10286948;28;20247;-70
2023/04/13 07:09:46;;;;;;;1.30;1.00;;;10.90;40.70;;;;;;10287891;28;20230;-70
2023/04/13 07:14:49;;;;;;;1.30;0.87;;;11.00;40.80;;;;;;10297689;28;20227;-70
2023/04/13 07:19:54;;;;;;;3.87;1.10;;;11.00;40.80;;;;;;10299839;28;20238;-70
2023/04/13 07:24:57;;;;;;;1.10;1.00;;;11.10;40.90;;;;;;10298655;28;20230;-71
2023/04/13 07:30:01;;;;;;;1.20;1.00;;;11.20;41.00;;;;;;10296866;28;20266;-69
2023/04/13 07:35:06;;;;;;;2.13;1.20;;;11.40;40.50;;;;;;10297306;28;20239;-70
2023/04/13 07:40:10;;;;;;;1.30;1.20;;;11.40;40.70;;;;;;10295274;28;20231;-70
2023/04/13 07:45:14;;;;;;;3.20;1.50;;;11.50;39.90;;;;;;10300634;28;20231;-70
2023/04/13 07:50:19;;;;;;;1.57;1.13;;;11.60;39.90;;;;;;10294684;28;20215;-70
2023/04/13 07:55:22;;;;;;;1.97;1.27;;;11.70;39.50;;;;;;10290730;28;20246;-70
2023/04/13 08:00:25;;;;;;;3.20;2.40;;;11.80;39.70;;;;;;10290843;28;20327;-70
2023/04/13 08:05:30;;;;;;;1.90;1.07;;;11.90;39.80;;;;;;10296893;28;20240;-70
2023/04/13 08:10:35;;;;;;;1.43;0.93;;;12.00;39.10;;;;;;10296530;28;20232;-70
2023/04/13 08:15:40;;;;;;;1.63;1.00;;;12.20;38.90;;;;;;10296327;28;20273;-70
2023/04/13 08:20:45;;;;;;;1.10;1.00;;;12.30;39.40;;;;;;10292893;28;20248;-70
2023/04/13 08:25:49;;;;;;;2.10;1.60;;;12.50;38.80;;;;;;10298126;28;20234;-70
2023/04/13 08:30:52;;;;;;;2.43;1.00;;;12.60;38.40;;;;;;10297531;28;20223;-70
2023/04/13 08:35:57;;;;;;;2.50;1.10;;;12.60;37.80;;;;;;10296216;28;21182;-70
2023/04/13 08:41:02;;;;;;;2.17;1.10;;;12.70;36.60;;;;;;10301785;28;20227;-70
2023/04/13 08:46:06;;;;;;;3.70;0.90;;;12.80;36.90;;;;;;10296813;28;20235;-70
2023/04/13 08:51:12;;;;;;;2.63;1.07;;;12.80;37.30;;;;;;10295494;28;20235;-70
2023/04/13 08:56:16;;;;;;;1.63;0.90;;;12.90;37.00;;;;;;10296669;28;20238;-70
2023/04/13 09:01:20;;;;;;;1.67;1.00;;;13.00;36.50;;;;;;10297477;28;20230;-71
2023/04/13 09:06:31;;;;;;;2.30;1.10;;;13.10;36.60;;;;;;10294907;28;20313;-68
2023/04/13 09:11:35;;;;;;;1.43;1.00;;;13.20;36.00;;;;;;10295246;28;20238;-72
2023/04/13 09:16:39;;;;;;;2.47;1.23;;;13.30;36.60;;;;;;10296057;28;20250;-71
2023/04/13 09:21:45;;;;;;;2.23;0.90;;;13.40;36.90;;;;;;10297425;28;20227;-71
2023/04/13 09:26:49;;;;;;;1.40;0.90;;;13.50;36.00;;;;;;10298632;28;20235;-71
2023/04/13 09:31:52;;;;;;;1.40;0.97;;;13.60;35.60;;;;;;10302561;28;20238;-71
2023/04/13 09:36:57;;;;;;;3.00;1.00;;;13.60;35.40;;;;;;10293420;28;20230;-71
2023/04/13 09:42:10;;;;;;;1.80;0.90;;;13.60;34.50;;;;;;10290022;28;20238;-71
2023/04/13 09:47:14;;;;;;;2.13;1.00;;;13.70;33.10;;;;;;10295847;28;20253;-72
2023/04/13 09:52:22;;;;;;;3.87;1.23;;;13.70;33.80;;;;;;10294325;28;20242;-72
2023/04/13 09:57:26;;;;;;;2.27;1.20;;;13.60;32.90;;;;;;10294148;28;20234;-71
2023/04/13 10:02:30;;;;;;;1.40;1.10;;;13.60;34.50;;;;;;10295516;28;20223;-71
2023/04/13 10:07:36;;;;;;;1.80;0.90;;;13.70;33.70;;;;;;10291134;28;20642;-72
2023/04/13 10:12:44;;;;;;;1.17;0.90;;;13.60;33.10;;;;;;10295665;28;20241;-71
2023/04/13 10:17:56;;;;;;;1.93;1.10;;;13.60;32.80;;;;;;10293689;28;20223;-71
2023/04/13 10:23:03;;;;;;;2.47;1.10;;;13.50;33.10;;;;;;10294243;28;20642;-71
2023/04/13 10:28:07;;;;;;;1.93;1.13;;;13.50;32.50;;;;;;10294188;28;20231;-71
2023/04/13 10:33:11;;;;;;;2.60;1.20;;;13.40;32.80;;;;;;10294982;28;20230;-71
2023/04/13 10:38:15;;;;;;;2.13;1.23;;;13.40;33.60;;;;;;10297093;28;20228;-71
2023/04/13 10:43:29;;;;;;;1.97;1.20;;;13.50;33.10;;;;;;10282677;28;20232;-71
2023/04/13 10:48:32;;;;;;;1.90;1.10;;;13.60;32.80;;;;;;10286278;28;20242;-71
2023/04/13 10:53:37;;;;;;;2.33;1.30;;;13.70;33.20;;;;;;10288818;28;20620;-72
2023/04/13 10:58:40;;;;;;;1.80;0.90;;;13.80;33.00;;;;;;10284344;28;20231;-72
2023/04/13 11:03:44;;;;;;;2.33;1.17;;;13.80;32.00;;;;;;10288534;28;20234;-72
2023/04/13 11:09:10;;;;;;;2.67;1.30;;;13.70;32.40;;;;;;10288916;28;20616;-72
2023/04/13 11:14:21;;;;;;;3.13;1.57;;;13.60;31.80;;;;;;10289503;28;20231;-72
2023/04/13 11:19:24;;;;;;;2.53;1.10;;;13.50;32.00;;;;;;10284822;28;20332;-71
2023/04/13 11:24:32;;;;;;;1.53;1.10;;;13.50;32.90;;;;;;10289961;28;20333;-71
2023/04/13 11:29:36;;;;;;;1.90;1.10;;;13.60;32.70;;;;;;10289722;28;20326;-72
2023/04/13 11:34:39;;;;;;;3.07;1.03;;;13.60;33.20;;;;;;10290872;28;20696;-72
2023/04/13 11:39:44;;;;;;;1.33;1.00;;;13.70;32.30;;;;;;10285686;28;20600;-72
2023/04/13 11:44:47;;;;;;;2.40;1.17;;;13.70;32.00;;;;;;10294234;28;21286;-72
2023/04/13 11:49:50;;;;;;;3.90;1.20;;;13.70;32.80;;;;;;10286417;28;20239;-72
2023/04/13 11:54:55;;;;;;;2.80;1.30;;;13.70;33.00;;;;;;10291404;28;20239;-72
2023/04/13 12:00:08;;;;;;;1.93;1.00;;;13.70;31.80;;;;;;10289774;28;20229;-70
2023/04/13 12:05:22;;;;;;;2.13;1.27;;;13.70;32.30;;;;;;10294727;28;20227;-73
2023/04/13 12:10:28;;;;;;;3.90;1.40;;;13.70;31.10;;;;;;10293110;28;20222;-71
2023/04/13 12:15:47;;;;;;;2.93;1.17;;;13.70;31.60;;;;;;10295386;28;20231;-72
2023/04/13 12:21:15;;;;;;;3.27;1.37;;;13.70;31.80;;;;;;10299597;28;20225;-72
2023/04/13 12:26:23;;;;;;;3.00;1.13;;;13.80;32.00;;;;;;10298136;28;20234;-72
2023/04/13 12:31:34;;;;;;;2.60;1.37;;;13.90;32.20;;;;;;10293252;28;20218;-70
2023/04/13 12:36:38;;;;;;;1.47;1.03;;;13.90;31.40;;;;;;10340308;28;20325;-70
2023/04/13 12:41:42;;;;;;;2.90;1.20;;;14.00;31.90;;;;;;10307211;28;20228;-70
2023/04/13 12:46:45;;;;;;;2.10;1.40;;;14.00;30.50;;;;;;10332172;28;20231;-71
2023/04/13 12:51:49;;;;;;;5.23;3.33;;;13.80;31.10;;;;;;10315091;28;20219;-71
2023/04/13 12:56:53;;;;;;;5.30;2.10;;;13.80;31.10;;;;;;10314440;28;20250;-71
2023/04/13 13:01:56;;;;;;;6.10;4.53;;;13.80;31.10;;;;;;10311087;28;20643;-71
2023/04/13 13:07:00;;;;;;;5.77;2.80;;;13.80;31.70;;;;;;10303180;28;20231;-72
2023/04/13 13:12:05;;;;;;;2.67;1.50;;;13.90;31.40;;;;;;10341065;28;20237;-71
2023/04/13 13:17:08;;;;;;;4.13;1.77;;;13.90;31.90;;;;;;10324642;28;20722;-70
2023/04/13 13:22:11;;;;;;;3.10;1.40;;;14.00;31.20;;;;;;10325233;28;20892;-71
2023/04/13 13:27:16;;;;;;;2.07;1.30;;;13.90;31.10;;;;;;10324244;28;20602;-70
2023/04/13 13:32:23;;;;;;;1.27;1.10;;;13.90;31.10;;;;;;10309883;28;20282;-70
2023/04/13 13:37:26;;;;;;;3.17;1.40;;;13.90;31.10;;;;;;10284512;28;20232;-70
2023/04/13 13:42:31;;;;;;;4.87;2.03;;;13.90;31.10;;;;;;10284020;28;20223;-70
2023/04/13 13:47:53;;;;;;;1.50;0.90;;;13.90;31.10;;;;;;10284131;28;20243;-71
2023/04/13 13:52:57;;;;;;;1.67;1.10;;;13.90;31.10;;;;;;10284159;28;20286;-71
2023/04/13 13:58:07;;;;;;;2.70;1.00;;;14.00;31.20;;;;;;10300688;28;20654;-71
2023/04/13 14:03:11;;;;;;;2.90;1.10;;;14.00;30.30;;;;;;10324064;28;20230;-72
2023/04/13 14:08:15;;;;;;;1.07;0.90;;;14.00;30.60;;;;;;10324718;28;20235;-72
2023/04/13 14:13:20;;;;;;;2.67;1.00;;;13.90;30.50;;;;;;10324944;28;20863;-71
2023/04/13 14:18:24;;;;;;;3.80;1.03;;;13.90;30.50;;;;;;10322533;28;20601;-70
2023/04/13 14:23:27;;;;;;;1.77;0.97;;;13.90;31.10;;;;;;10322500;28;20227;-71
2023/04/13 14:28:32;;;;;;;3.30;1.50;;;14.00;31.20;;;;;;10322991;28;20254;-70
2023/04/13 14:33:35;;;;;;;2.83;1.30;;;14.00;31.20;;;;;;10322620;28;20242;-70
2023/04/13 14:38:39;;;;;;;3.43;1.20;;;14.10;31.30;;;;;;10322518;28;20231;-70
2023/04/13 14:43:43;;;;;;;2.33;1.30;;;14.10;31.30;;;;;;10322044;28;20743;-70
2023/04/13 14:48:46;;;;;;;2.43;1.20;;;14.10;31.40;;;;;;10322662;28;20235;-70
2023/04/13 14:53:54;;;;;;;3.13;1.77;;;14.10;31.30;;;;;;10322509;28;20621;-70
2023/04/13 14:58:59;;;;;;;3.23;1.10;;;14.10;31.30;;;;;;10322050;28;20233;-70
2023/04/13 15:04:03;;;;;;;2.73;1.10;;;14.20;30.60;;;;;;10322078;28;20276;-70
2023/04/13 15:09:08;;;;;;;4.33;2.87;;;14.30;30.70;;;;;;10322688;28;20231;-70
2023/04/13 15:14:12;;;;;;;3.40;1.40;;;14.30;30.80;;;;;;10322482;28;20231;-70
2023/04/13 15:19:16;;;;;;;2.80;1.43;;;14.30;30.60;;;;;;10322652;28;20240;-71
2023/04/13 15:24:19;;;;;;;2.20;1.30;;;14.30;30.70;;;;;;10322543;28;20238;-70
2023/04/13 15:29:23;;;;;;;3.23;1.37;;;14.20;30.90;;;;;;10322189;28;20642;-68
2023/04/13 15:34:29;;;;;;;2.17;1.30;;;14.10;31.30;;;;;;10326899;28;20241;-70
2023/04/13 15:39:32;;;;;;;2.70;1.30;;;14.00;31.20;;;;;;10329578;28;20231;-70
2023/04/13 15:44:37;;;;;;;1.60;0.93;;;14.10;31.30;;;;;;10329537;28;20239;-70
2023/04/13 15:49:40;;;;;;;2.90;1.20;;;14.00;31.20;;;;;;10329806;28;20223;-70
2023/04/13 15:54:43;;;;;;;2.97;1.57;;;14.10;31.30;;;;;;10328824;28;20239;-70
2023/04/13 15:59:47;;;;;;;4.80;2.70;;;14.00;31.10;;;;;;10329732;28;20237;-70
2023/04/13 16:04:51;;;;;;;3.53;2.33;;;14.00;31.20;;;;;;10330465;28;20227;-70
2023/04/13 16:09:56;;;;;;;2.57;1.70;;;13.80;31.10;;;;;;10331088;28;20230;-70
2023/04/13 16:15:02;;;;;;;3.43;1.80;;;13.70;31.00;;;;;;10330933;28;20548;-70
2023/04/13 16:20:16;;;;;;;3.87;1.90;;;13.60;31.30;;;;;;10330620;28;20231;-70
2023/04/13 16:25:19;;;;;;;4.70;2.03;;;13.50;31.30;;;;;;10330161;28;20235;-70
2023/04/13 16:30:24;;;;;;;3.43;2.50;;;13.40;31.60;;;;;;10330090;28;20234;-70
2023/04/13 16:35:28;;;;;;;5.13;1.87;;;13.30;31.40;;;;;;10329640;28;20234;-70
2023/04/13 16:40:31;;;;;;;2.97;1.67;;;13.30;31.60;;;;;;10330098;28;20227;-70
2023/04/13 16:45:36;;;;;;;3.97;1.73;;;13.20;31.90;;;;;;10329306;28;20611;-70
2023/04/13 16:50:40;;;;;;;3.43;2.00;;;13.10;32.10;;;;;;10329484;28;20234;-70
2023/04/13 16:55:49;;;;;;;4.50;3.23;;;13.00;32.00;;;;;;10329294;28;20231;-70
2023/04/13 17:00:56;;;;;;;6.40;5.27;;;12.90;32.20;;;;;;10329138;28;20234;-70
2023/04/13 17:05:59;;;;;;;5.77;3.07;;;12.80;32.20;;;;;;10296254;28;20593;-70
2023/04/13 17:11:03;;;;;;;4.03;2.80;;;12.70;32.20;;;;;;10324655;28;20227;-70
2023/04/13 17:16:08;;;;;;;3.30;2.17;;;12.60;32.30;;;;;;10351515;28;20239;-70
2023/04/13 17:21:12;;;;;;;2.60;2.10;;;12.60;32.40;;;;;;10322241;28;20230;-70
2023/04/13 17:26:15;;;;;;;3.30;2.60;;;12.50;32.50;;;;;;10356726;28;20597;-70
2023/04/13 17:31:20;;;;;;;3.30;2.47;;;12.40;32.50;;;;;;10322844;28;20278;-70
2023/04/13 17:36:26;;;;;;;4.37;2.20;;;12.40;32.70;;;;;;10318748;28;20235;-69
2023/04/13 17:41:29;;;;;;;4.33;2.70;;;12.30;32.70;;;;;;10310258;28;20282;-70
2023/04/13 17:46:33;;;;;;;3.47;2.70;;;12.30;32.60;;;;;;10318397;28;20234;-69
2023/04/13 17:51:37;;;;;;;3.57;2.20;;;12.30;32.80;;;;;;10323861;28;20315;-71
2023/04/13 17:56:40;;;;;;;4.33;3.80;;;12.20;32.70;;;;;;10325732;28;20235;-70
2023/04/13 18:01:45;;;;;;;5.77;4.30;;;12.20;32.80;;;;;;10328941;28;20239;-70
2023/04/13 18:06:48;;;;;;;5.17;2.93;;;12.20;33.00;;;;;;10318710;28;20640;-70
2023/04/13 18:11:51;;;;;;;4.10;2.27;;;12.20;33.00;;;;;;10346123;28;20229;-71
2023/04/13 18:16:56;;;;;;;3.63;2.60;;;12.20;32.90;;;;;;10316684;28;20235;-70
2023/04/13 18:21:59;;;;;;;3.97;2.17;;;12.20;32.90;;;;;;10347958;28;20218;-70
2023/04/13 18:27:02;;;;;;;2.27;2.07;;;12.20;32.90;;;;;;10325574;28;20230;-70
2023/04/13 18:32:08;;;;;;;4.90;2.57;;;12.20;32.90;;;;;;10349813;28;20230;-70
2023/04/13 18:37:11;;;;;;;5.40;2.57;;;12.30;33.00;;;;;;10307635;28;20236;-70
2023/04/13 18:42:14;;;;;;;4.53;3.13;;;12.30;32.90;;;;;;10319670;28;20232;-73
2023/04/13 18:47:21;;;;;;;2.53;1.77;;;12.30;32.90;;;;;;10311754;28;20228;-73
2023/04/13 18:52:24;;;;;;;2.03;1.80;;;12.40;32.70;;;;;;10298731;28;20287;-72
2023/04/13 18:57:28;;;;;;;2.53;1.63;;;12.40;32.80;;;;;;10312433;28;20317;-70
2023/04/13 19:02:32;;;;;;;2.67;1.40;;;12.40;32.80;;;;;;10324467;28;20230;-70
2023/04/13 19:07:36;;;;;;;4.37;3.50;;;12.50;32.70;;;;;;10319417;28;20238;-71
2023/04/13 19:12:39;;;;;;;4.63;3.00;;;12.50;32.70;;;;;;10327625;28;20227;-71
2023/04/13 19:17:44;;;;;;;3.00;2.40;;;12.50;32.60;;;;;;10314750;28;20238;-71
2023/04/13 19:22:47;;;;;;;5.57;4.20;;;12.40;32.60;;;;;;10333526;28;20274;-70
2023/04/13 19:27:50;;;;;;;5.77;3.70;;;12.40;32.70;;;;;;10314782;28;20606;-70
2023/04/13 19:32:55;;;;;;;5.30;3.83;;;12.40;32.90;;;;;;10304945;28;20234;-71
2023/04/13 19:37:58;;;;;;;3.77;2.70;;;12.40;33.00;;;;;;10314077;28;20646;-70
2023/04/13 19:43:02;;;;;;;4.03;2.80;;;12.40;33.00;;;;;;10300427;28;20683;-70
2023/04/13 19:48:06;;;;;;;4.13;2.47;;;12.40;33.00;;;;;;10320830;28;20290;-71
2023/04/13 19:53:10;;;;;;;3.10;2.80;;;12.50;32.80;;;;;;10327832;28;20228;-70
2023/04/13 19:58:13;;;;;;;4.10;2.60;;;12.40;32.70;;;;;;10309408;28;20266;-71
2023/04/13 20:03:19;;;;;;;5.10;2.87;;;12.30;32.80;;;;;;10331791;28;20245;-70
2023/04/13 20:08:23;;;;;;;3.70;2.23;;;12.20;33.00;;;;;;10332755;28;20231;-71
2023/04/13 20:13:26;;;;;;;4.00;1.80;;;12.20;33.10;;;;;;10309909;28;20238;-71
2023/04/13 20:18:31;;;;;;;2.20;1.50;;;12.10;33.20;;;;;;10322510;28;20861;-70
2023/04/13 20:23:35;;;;;;;2.57;1.50;;;12.10;33.30;;;;;;10349132;28;20277;-70
2023/04/13 20:28:38;;;;;;;2.13;1.30;;;12.00;33.10;;;;;;10330158;28;20289;-71
2023/04/13 20:33:44;;;;;;;3.93;1.57;;;12.00;33.20;;;;;;10326116;28;20228;-71
2023/04/13 20:38:48;;;;;;;2.27;1.20;;;11.90;33.40;;;;;;10325550;28;20262;-70
2023/04/13 20:43:53;;;;;;;2.20;1.40;;;11.90;33.30;;;;;;10327606;28;20219;-70
2023/04/13 20:48:58;;;;;;;1.93;1.40;;;11.80;33.40;;;;;;10326175;28;20231;-70
2023/04/13 20:54:04;;;;;;;1.30;1.13;;;11.80;33.50;;;;;;10325426;28;20231;-70
2023/04/13 20:59:07;;;;;;;1.47;1.37;;;11.70;33.40;;;;;;10324500;28;20730;-70
2023/04/13 21:04:12;;;;;;;2.20;1.37;;;11.70;33.50;;;;;;10334275;28;20254;-70
2023/04/13 21:09:15;;;;;;;2.17;1.30;;;11.70;33.70;;;;;;10329320;28;20720;-70
2023/04/13 21:14:22;;;;;;;1.57;1.20;;;11.60;33.60;;;;;;10356674;28;20734;-71
2023/04/13 21:19:27;;;;;;;1.97;1.00;;;11.50;33.90;;;;;;10342707;28;20246;-70
2023/04/13 21:24:30;;;;;;;1.93;1.20;;;11.50;34.30;;;;;;10308556;28;20234;-70
2023/04/13 21:29:33;;;;;;;2.63;1.10;;;11.40;34.10;;;;;;10329590;28;20233;-70
2023/04/13 21:34:38;;;;;;;2.87;2.23;;;11.40;34.30;;;;;;10329344;28;20899;-70
2023/04/13 21:39:41;;;;;;;2.27;1.40;;;11.40;34.50;;;;;;10322250;28;20238;-70
2023/04/13 21:44:44;;;;;;;1.53;1.10;;;11.30;34.30;;;;;;10329238;28;20650;-70
2023/04/13 21:49:48;;;;;;;1.13;0.90;;;11.30;34.30;;;;;;10326906;28;20230;-70
2023/04/13 21:54:52;;;;;;;2.70;1.10;;;11.20;34.60;;;;;;10359895;28;20280;-71
2023/04/13 21:59:55;;;;;;;1.43;1.30;;;11.20;34.70;;;;;;10327881;28;20241;-71
2023/04/13 22:04:59;;;;;;;2.87;1.47;;;11.10;34.80;;;;;;10322489;28;20223;-71
2023/04/13 22:10:03;;;;;;;2.97;1.60;;;11.10;35.30;;;;;;10305461;28;20290;-71
2023/04/13 22:15:07;;;;;;;1.53;1.40;;;11.00;35.10;;;;;;10303784;28;20720;-72
2023/04/13 22:20:12;;;;;;;1.37;1.00;;;11.00;35.50;;;;;;10333451;28;20246;-71
2023/04/13 22:25:15;;;;;;;1.23;1.03;;;11.00;35.70;;;;;;10305003;28;20238;-71
2023/04/13 22:30:18;;;;;;;1.80;1.10;;;10.90;35.30;;;;;;10329315;28;20234;-71
2023/04/13 22:35:23;;;;;;;1.20;1.10;;;10.80;35.50;;;;;;10345713;28;20246;-71
2023/04/13 22:40:26;;;;;;;1.37;0.97;;;10.80;36.20;;;;;;10346185;28;20966;-71
2023/04/13 22:45:29;;;;;;;1.10;1.00;;;10.90;36.10;;;;;;10337256;28;20226;-71
2023/04/13 22:50:36;;;;;;;2.00;1.20;;;10.80;36.00;;;;;;10325506;28;20227;-71
2023/04/13 22:55:39;;;;;;;1.90;1.07;;;10.90;36.70;;;;;;10323234;28;20710;-72
2023/04/13 23:00:42;;;;;;;1.63;1.17;;;10.90;36.00;;;;;;10320302;28;20227;-71
2023/04/13 23:05:47;;;;;;;0.80;0.80;;;10.90;36.00;;;;;;10318050;28;20488;-71
2023/04/13 23:10:50;;;;;;;1.73;1.00;;;10.90;36.30;;;;;;10325384;28;20754;-71
2023/04/13 23:16:00;;;;;;;1.10;1.00;;;10.90;36.10;;;;;;10326406;28;20286;-71
2023/04/13 23:21:10;;;;;;;1.53;1.00;;;10.90;37.10;;;;;;10302037;28;20231;-71
2023/04/13 23:26:14;;;;;;;1.30;1.20;;;10.90;37.20;;;;;;10327938;28;20227;-71
2023/04/13 23:31:17;;;;;;;2.10;1.20;;;10.80;36.30;;;;;;10330599;28;20234;-71
2023/04/13 23:36:21;;;;;;;1.20;1.10;;;10.70;36.30;;;;;;10304053;28;20231;-71
2023/04/13 23:41:25;;;;;;;1.70;1.20;;;10.80;36.80;;;;;;10343440;28;20230;-72
2023/04/13 23:46:29;;;;;;;2.83;1.17;;;10.70;36.60;;;;;;10332172;28;20321;-71
2023/04/13 23:51:33;;;;;;;1.33;1.23;;;10.70;36.80;;;;;;10340791;28;20246;-71
2023/04/13 23:56:36;;;;;;;1.83;1.10;;;10.70;37.20;;;;;;10323700;28;20305;-71
